Accueil
METAR-TAF:

METAR-TAF

Aéroports :

Odiham, Angleterre

latitude: 51-14N, longitude: 000-57W, altitude: 123 m

Observation

Le bulletin a été fait il y a 41 minutes, à 20:50 UTC
Vent 5 kt de nord/nord-ouest
Température 4°C
Humidité 87%
Pression 1020 hPa
Visibilité 10 km ou plus
Nuages épars à une hauteur de 2700 ft

METAR: EGVO 262050Z 34005KT 9999 SCT027 04/02 Q1020 BLU NOSIG

Heure: 22:31 (21:31 UTC)

Prévision

Le bulletin a été fait il y a 1 heure et 47 minutes, à 19:44 UTC
Prévision valable du 26 à 21 UTC au 27 à 09 UTC
Vent 10 kt de nord
Visibilité 10 km ou plus
pas de nuages en-dessous de 1500 mètres et pas de cumulonimbus.
Evoluant progressivement
du 27 à 00 UTC au 27 à 03 UTC
Visibilité: 7000 m
brume
Probabilité 30%
du 27 à 03 UTC au 27 à 08 UTC
Visibilité: 4000 m
Brouillard mince, brume

TAF: EGVO 261944Z 2621/2709 35010KT CAVOK BECMG 2700/2703 7000 BR PROB30 2703/2708 4000 MIFG BR

Observations et prévisions météorologiques de plus de 4000 aéroports (messages METAR et TAF).

Les stations disponibles sont représentées par des disques jaunes et rouges sur la carte.

Passer la souris dessus pour voir le nom de la station.

Cliquer dessus pour voir les observations et prévisions météorologiques.

Pour changer de carte: cliquez sur les boutons verts avec une croix noire pour zoomer, sur le bouton vert avec un tiret pour effectuer un zoom arrière, ou sur les flèches vertes pour les cartes adjacentes.


METAR-TAF: